sensor_id;sensor_type;location;lat;lon;timestamp;pressure;altitude;pressure_sealevel;temperature;humidity
70954;BME280;58618;47.490;8.736;2023-05-14T00:00:00;96466.13;;;7.74;100.00
70954;BME280;58618;47.490;8.736;2023-05-14T00:02:47;96435.03;;;7.50;100.00
70954;BME280;58618;47.490;8.736;2023-05-14T00:05:35;96454.28;;;7.63;100.00
70954;BME280;58618;47.490;8.736;2023-05-14T00:08:23;96451.97;;;7.61;100.00
70954;BME280;58618;47.490;8.736;2023-05-14T00:11:11;96454.28;;;7.58;100.00
70954;BME280;58618;47.490;8.736;2023-05-14T00:13:58;96469.69;;;7.63;100.00
70954;BME280;58618;47.490;8.736;2023-05-14T00:16:48;96460.47;;;7.67;100.00
70954;BME280;58618;47.490;8.736;2023-05-14T00:19:35;96463.00;;;7.62;100.00
70954;BME280;58618;47.490;8.736;2023-05-14T00:22:22;96443.75;;;7.49;100.00
70954;BME280;58618;47.490;8.736;2023-05-14T00:25:11;96444.00;;;7.53;100.00
70954;BME280;58618;47.490;8.736;2023-05-14T00:27:58;96459.94;;;7.55;100.00
70954;BME280;58618;47.490;8.736;2023-05-14T00:30:46;96441.19;;;7.54;100.00
70954;BME280;58618;47.490;8.736;2023-05-14T00:33:33;96450.19;;;7.57;100.00
70954;BME280;58618;47.490;8.736;2023-05-14T00:36:20;96438.88;;;7.53;100.00
70954;BME280;58618;47.490;8.736;2023-05-14T00:39:08;96456.88;;;7.68;100.00
70954;BME280;58618;47.490;8.736;2023-05-14T00:41:56;96455.06;;;7.69;100.00
70954;BME280;58618;47.490;8.736;2023-05-14T00:44:44;96426.56;;;7.55;100.00
70954;BME280;58618;47.490;8.736;2023-05-14T00:47:31;96448.69;;;7.86;100.00
70954;BME280;58618;47.490;8.736;2023-05-14T00:50:19;96446.63;;;7.98;100.00
70954;BME280;58618;47.490;8.736;2023-05-14T00:53:07;96459.50;;;8.03;100.00
70954;BME280;58618;47.490;8.736;2023-05-14T00:55:56;96437.38;;;8.23;100.00
70954;BME280;58618;47.490;8.736;2023-05-14T00:58:45;96439.72;;;8.14;100.00
70954;BME280;58618;47.490;8.736;2023-05-14T01:01:32;96448.44;;;8.08;100.00
70954;BME280;58618;47.490;8.736;2023-05-14T01:04:20;96444.81;;;8.04;100.00
70954;BME280;58618;47.490;8.736;2023-05-14T01:07:11;96448.69;;;8.06;100.00
70954;BME280;58618;47.490;8.736;2023-05-14T01:10:07;96445.59;;;8.15;100.00
70954;BME280;58618;47.490;8.736;2023-05-14T01:13:03;96438.91;;;7.98;100.00
70954;BME280;58618;47.490;8.736;2023-05-14T01:15:57;96417.34;;;7.89;100.00
70954;BME280;58618;47.490;8.736;2023-05-14T01:18:45;96435.09;;;8.01;100.00
70954;BME280;58618;47.490;8.736;2023-05-14T01:21:38;96447.16;;;8.36;100.00
70954;BME280;58618;47.490;8.736;2023-05-14T01:24:25;96439.44;;;8.31;100.00
70954;BME280;58618;47.490;8.736;2023-05-14T01:27:17;96435.59;;;8.28;100.00
70954;BME280;58618;47.490;8.736;2023-05-14T01:30:13;96441.50;;;8.29;100.00
70954;BME280;58618;47.490;8.736;2023-05-14T01:33:06;96412.22;;;8.35;100.00
70954;BME280;58618;47.490;8.736;2023-05-14T01:35:56;96436.84;;;8.66;100.00
70954;BME280;58618;47.490;8.736;2023-05-14T01:38:45;96433.25;;;8.57;100.00
70954;BME280;58618;47.490;8.736;2023-05-14T01:41:35;96411.19;;;8.31;100.00
70954;BME280;58618;47.490;8.736;2023-05-14T01:44:24;96428.63;;;8.54;100.00
70954;BME280;58618;47.490;8.736;2023-05-14T01:47:11;96428.13;;;8.47;100.00
70954;BME280;58618;47.490;8.736;2023-05-14T01:49:59;96432.75;;;8.55;100.00
70954;BME280;58618;47.490;8.736;2023-05-14T01:52:46;96422.97;;;8.57;100.00
70954;BME280;58618;47.490;8.736;2023-05-14T01:55:35;96424.47;;;8.68;100.00
70954;BME280;58618;47.490;8.736;2023-05-14T01:58:22;96422.31;;;8.96;100.00
70954;BME280;58618;47.490;8.736;2023-05-14T02:01:12;96434.22;;;8.81;100.00
70954;BME280;58618;47.490;8.736;2023-05-14T02:03:59;96433.94;;;8.88;100.00
70954;BME280;58618;47.490;8.736;2023-05-14T02:06:47;96423.94;;;8.76;100.00
70954;BME280;58618;47.490;8.736;2023-05-14T02:09:34;96429.06;;;8.81;100.00
70954;BME280;58618;47.490;8.736;2023-05-14T02:12:23;96428.31;;;8.81;100.00
70954;BME280;58618;47.490;8.736;2023-05-14T02:15:11;96406.19;;;8.80;100.00
70954;BME280;58618;47.490;8.736;2023-05-14T02:17:58;96407.50;;;8.77;100.00
70954;BME280;58618;47.490;8.736;2023-05-14T02:20:46;96405.66;;;8.78;100.00
70954;BME280;58618;47.490;8.736;2023-05-14T02:23:33;96406.97;;;8.80;100.00
70954;BME280;58618;47.490;8.736;2023-05-14T02:26:20;96397.69;;;8.84;100.00
70954;BME280;58618;47.490;8.736;2023-05-14T02:29:09;96406.41;;;8.83;100.00
70954;BME280;58618;47.490;8.736;2023-05-14T02:31:56;96408.50;;;8.81;100.00
70954;BME280;58618;47.490;8.736;2023-05-14T02:34:44;96402.84;;;8.79;100.00
70954;BME280;58618;47.490;8.736;2023-05-14T02:37:31;96414.13;;;8.88;100.00
70954;BME280;58618;47.490;8.736;2023-05-14T02:40:19;96387.94;;;8.81;100.00
70954;BME280;58618;47.490;8.736;2023-05-14T02:43:06;96389.44;;;8.93;100.00
70954;BME280;58618;47.490;8.736;2023-05-14T02:45:55;96402.50;;;9.01;100.00
70954;BME280;58618;47.490;8.736;2023-05-14T02:48:43;96408.41;;;9.02;100.00
70954;BME280;58618;47.490;8.736;2023-05-14T02:51:30;96388.41;;;8.88;100.00
70954;BME280;58618;47.490;8.736;2023-05-14T02:54:17;96400.72;;;8.97;100.00
70954;BME280;58618;47.490;8.736;2023-05-14T02:57:06;96393.53;;;8.99;100.00
70954;BME280;58618;47.490;8.736;2023-05-14T02:59:54;96395.81;;;9.00;100.00
70954;BME280;58618;47.490;8.736;2023-05-14T03:02:42;96391.97;;;8.98;100.00
70954;BME280;58618;47.490;8.736;2023-05-14T03:05:30;96390.44;;;8.97;100.00
70954;BME280;58618;47.490;8.736;2023-05-14T03:08:17;96380.16;;;8.97;100.00
70954;BME280;58618;47.490;8.736;2023-05-14T03:11:04;96393.97;;;9.06;100.00
70954;BME280;58618;47.490;8.736;2023-05-14T03:13:52;96391.91;;;9.13;100.00
70954;BME280;58618;47.490;8.736;2023-05-14T03:16:39;96390.91;;;9.09;100.00
70954;BME280;58618;47.490;8.736;2023-05-14T03:19:28;96387.78;;;9.12;100.00
70954;BME280;58618;47.490;8.736;2023-05-14T03:22:16;96380.09;;;9.07;100.00
70954;BME280;58618;47.490;8.736;2023-05-14T03:25:04;96393.97;;;9.11;100.00
70954;BME280;58618;47.490;8.736;2023-05-14T03:27:51;96395.53;;;9.07;100.00
70954;BME280;58618;47.490;8.736;2023-05-14T03:30:38;96393.47;;;9.09;100.00
70954;BME280;58618;47.490;8.736;2023-05-14T03:33:26;96381.09;;;9.11;100.00
70954;BME280;58618;47.490;8.736;2023-05-14T03:36:15;96383.06;;;9.29;100.00
70954;BME280;58618;47.490;8.736;2023-05-14T03:39:03;96389.28;;;9.23;100.00
70954;BME280;58618;47.490;8.736;2023-05-14T03:41:51;96388.78;;;9.16;100.00
70954;BME280;58618;47.490;8.736;2023-05-14T03:44:39;96393.47;;;9.09;100.00
70954;BME280;58618;47.490;8.736;2023-05-14T03:47:27;96394.97;;;9.15;100.00
70954;BME280;58618;47.490;8.736;2023-05-14T03:50:14;96386.25;;;9.11;100.00
70954;BME280;58618;47.490;8.736;2023-05-14T03:53:03;96369.06;;;9.01;100.00
70954;BME280;58618;47.490;8.736;2023-05-14T03:55:51;96363.41;;;8.99;100.00
70954;BME280;58618;47.490;8.736;2023-05-14T03:58:38;96374.41;;;9.10;100.00
70954;BME280;58618;47.490;8.736;2023-05-14T04:01:25;96374.16;;;9.11;100.00
70954;BME280;58618;47.490;8.736;2023-05-14T04:04:13;96373.78;;;9.33;100.00
70954;BME280;58618;47.490;8.736;2023-05-14T04:07:00;96383.34;;;9.22;100.00
70954;BME280;58618;47.490;8.736;2023-05-14T04:09:49;96390.34;;;9.17;100.00
70954;BME280;58618;47.490;8.736;2023-05-14T04:12:37;96377.53;;;9.02;100.00
70954;BME280;58618;47.490;8.736;2023-05-14T04:15:24;96390.16;;;9.03;100.00
70954;BME280;58618;47.490;8.736;2023-05-14T04:18:12;96375.00;;;8.97;100.00
70954;BME280;58618;47.490;8.736;2023-05-14T04:20:59;96384.75;;;9.00;100.00
70954;BME280;58618;47.490;8.736;2023-05-14T04:23:47;96385.03;;;8.98;100.00
70954;BME280;58618;47.490;8.736;2023-05-14T04:26:36;96381.66;;;9.03;100.00
70954;BME280;58618;47.490;8.736;2023-05-14T04:29:23;96385.69;;;9.19;100.00
70954;BME280;58618;47.490;8.736;2023-05-14T04:32:10;96390.34;;;9.17;100.00
70954;BME280;58618;47.490;8.736;2023-05-14T04:34:58;96364.81;;;9.20;100.00
70954;BME280;58618;47.490;8.736;2023-05-14T04:37:45;96385.38;;;9.30;100.00
70954;BME280;58618;47.490;8.736;2023-05-14T04:40:34;96393.81;;;9.36;100.00
70954;BME280;58618;47.490;8.736;2023-05-14T04:43:22;96358.84;;;9.35;100.00
70954;BME280;58618;47.490;8.736;2023-05-14T04:46:10;96385.94;;;9.61;100.00
70954;BME280;58618;47.490;8.736;2023-05-14T04:48:58;96395.63;;;9.74;100.00
70954;BME280;58618;47.490;8.736;2023-05-14T04:51:46;96363.59;;;9.57;100.00
70954;BME280;58618;47.490;8.736;2023-05-14T04:54:33;96394.75;;;9.89;100.00
70954;BME280;58618;47.490;8.736;2023-05-14T04:57:20;96374.47;;;9.83;100.00
70954;BME280;58618;47.490;8.736;2023-05-14T05:00:10;96401.84;;;10.02;100.00
70954;BME280;58618;47.490;8.736;2023-05-14T05:02:58;96383.94;;;9.87;100.00
70954;BME280;58618;47.490;8.736;2023-05-14T05:05:45;96404.66;;;10.06;100.00
70954;BME280;58618;47.490;8.736;2023-05-14T05:08:32;96403.06;;;10.15;100.00
70954;BME280;58618;47.490;8.736;2023-05-14T05:11:20;96389.69;;;10.08;100.00
70954;BME280;58618;47.490;8.736;2023-05-14T05:14:07;96400.00;;;10.08;100.00
70954;BME280;58618;47.490;8.736;2023-05-14T05:16:56;96398.16;;;10.13;100.00
70954;BME280;58618;47.490;8.736;2023-05-14T05:19:43;96402.47;;;10.23;100.00
70954;BME280;58618;47.490;8.736;2023-05-14T05:22:31;96409.59;;;10.31;100.00
70954;BME280;58618;47.490;8.736;2023-05-14T05:25:18;96392.94;;;10.24;100.00
70954;BME280;58618;47.490;8.736;2023-05-14T05:28:05;96395.47;;;10.29;100.00
70954;BME280;58618;47.490;8.736;2023-05-14T05:30:53;96394.69;;;10.28;100.00
70954;BME280;58618;47.490;8.736;2023-05-14T05:33:42;96393.66;;;10.29;100.00
70954;BME280;58618;47.490;8.736;2023-05-14T05:36:29;96377.09;;;10.35;100.00
70954;BME280;58618;47.490;8.736;2023-05-14T05:39:17;96372.66;;;10.41;100.00
70954;BME280;58618;47.490;8.736;2023-05-14T05:42:05;96380.00;;;10.52;100.00
70954;BME280;58618;47.490;8.736;2023-05-14T05:44:53;96389.69;;;10.66;100.00
70954;BME280;58618;47.490;8.736;2023-05-14T05:47:40;96377.34;;;10.63;100.00
70954;BME280;58618;47.490;8.736;2023-05-14T05:50:29;96393.28;;;10.88;100.00
70954;BME280;58618;47.490;8.736;2023-05-14T05:53:17;96407.81;;;11.03;100.00
70954;BME280;58618;47.490;8.736;2023-05-14T05:56:05;96380.09;;;10.90;100.00
70954;BME280;58618;47.490;8.736;2023-05-14T05:58:52;96376.38;;;10.53;100.00
70954;BME280;58618;47.490;8.736;2023-05-14T06:01:39;96382.16;;;10.45;100.00
70954;BME280;58618;47.490;8.736;2023-05-14T06:04:28;96402.06;;;10.64;100.00
70954;BME280;58618;47.490;8.736;2023-05-14T06:07:17;96397.34;;;10.71;100.00
70954;BME280;58618;47.490;8.736;2023-05-14T06:10:05;96398.63;;;10.73;100.00
70954;BME280;58618;47.490;8.736;2023-05-14T06:12:53;96386.06;;;10.67;100.00
70954;BME280;58618;47.490;8.736;2023-05-14T06:15:40;96399.38;;;10.74;100.00
70954;BME280;58618;47.490;8.736;2023-05-14T06:18:28;96397.28;;;10.76;100.00
70954;BME280;58618;47.490;8.736;2023-05-14T06:21:15;96391.28;;;11.04;100.00
70954;BME280;58618;47.490;8.736;2023-05-14T06:24:04;96387.00;;;10.94;100.00
70954;BME280;58618;47.490;8.736;2023-05-14T06:26:52;96399.38;;;11.16;100.00
70954;BME280;58618;47.490;8.736;2023-05-14T06:29:39;96400.00;;;11.27;100.00
70954;BME280;58618;47.490;8.736;2023-05-14T06:32:26;96403.56;;;11.12;100.00
70954;BME280;58618;47.490;8.736;2023-05-14T06:35:14;96399.50;;;11.06;100.00
70954;BME280;58618;47.490;8.736;2023-05-14T06:38:01;96374.88;;;10.95;100.00
70954;BME280;58618;47.490;8.736;2023-05-14T06:40:50;96402.47;;;11.18;100.00
70954;BME280;58618;47.490;8.736;2023-05-14T06:43:38;96404.16;;;11.47;100.00
70954;BME280;58618;47.490;8.736;2023-05-14T06:46:25;96385.34;;;11.60;100.00
70954;BME280;58618;47.490;8.736;2023-05-14T06:49:13;96398.00;;;11.80;100.00
70954;BME280;58618;47.490;8.736;2023-05-14T06:52:00;96406.28;;;11.96;100.00
70954;BME280;58618;47.490;8.736;2023-05-14T06:54:48;96404.00;;;11.94;100.00
70954;BME280;58618;47.490;8.736;2023-05-14T06:57:37;96404.28;;;11.74;100.00
70954;BME280;58618;47.490;8.736;2023-05-14T07:00:25;96388.44;;;11.80;100.00
70954;BME280;58618;47.490;8.736;2023-05-14T07:03:12;96389.09;;;12.18;100.00
70954;BME280;58618;47.490;8.736;2023-05-14T07:06:00;96398.09;;;12.07;100.00
70954;BME280;58618;47.490;8.736;2023-05-14T07:08:47;96402.69;;;12.10;100.00
70954;BME280;58618;47.490;8.736;2023-05-14T07:11:34;96396.78;;;11.91;100.00
70954;BME280;58618;47.490;8.736;2023-05-14T07:14:23;96367.84;;;11.57;100.00
70954;BME280;58618;47.490;8.736;2023-05-14T07:17:10;96382.91;;;11.87;100.00
70954;BME280;58618;47.490;8.736;2023-05-14T07:19:58;96400.78;;;11.65;100.00
70954;BME280;58618;47.490;8.736;2023-05-14T07:22:45;96393.22;;;11.73;100.00
70954;BME280;58618;47.490;8.736;2023-05-14T07:25:32;96401.53;;;12.16;100.00
70954;BME280;58618;47.490;8.736;2023-05-14T07:28:20;96387.69;;;12.40;100.00
70954;BME280;58618;47.490;8.736;2023-05-14T07:31:08;96390.06;;;12.22;100.00
70954;BME280;58618;47.490;8.736;2023-05-14T07:33:56;96391.16;;;11.89;100.00
70954;BME280;58618;47.490;8.736;2023-05-14T07:36:43;96383.50;;;11.98;100.00
70954;BME280;58618;47.490;8.736;2023-05-14T07:39:31;96388.94;;;12.28;100.00
70954;BME280;58618;47.490;8.736;2023-05-14T07:42:18;96379.53;;;12.33;100.00
70954;BME280;58618;47.490;8.736;2023-05-14T07:45:07;96386.94;;;11.93;100.00
70954;BME280;58618;47.490;8.736;2023-05-14T07:47:56;96381.44;;;11.81;100.00
70954;BME280;58618;47.490;8.736;2023-05-14T07:50:43;96380.31;;;11.87;100.00
70954;BME280;58618;47.490;8.736;2023-05-14T07:53:31;96386.28;;;12.01;100.00
70954;BME280;58618;47.490;8.736;2023-05-14T07:56:19;96359.16;;;11.85;100.00
70954;BME280;58618;47.490;8.736;2023-05-14T07:59:06;96390.28;;;12.26;100.00
70954;BME280;58618;47.490;8.736;2023-05-14T08:01:53;96390.00;;;12.41;100.00
70954;BME280;58618;47.490;8.736;2023-05-14T08:04:43;96394.31;;;12.87;100.00
70954;BME280;58618;47.490;8.736;2023-05-14T08:07:30;96393.13;;;13.34;100.00
70954;BME280;58618;47.490;8.736;2023-05-14T08:10:18;96388.16;;;13.60;100.00
70954;BME280;58618;47.490;8.736;2023-05-14T08:13:06;96385.63;;;13.90;100.00
70954;BME280;58618;47.490;8.736;2023-05-14T08:15:53;96387.25;;;13.64;100.00
70954;BME280;58618;47.490;8.736;2023-05-14T08:18:41;96380.75;;;13.67;100.00
70954;BME280;58618;47.490;8.736;2023-05-14T08:21:30;96376.41;;;14.07;100.00
70954;BME280;58618;47.490;8.736;2023-05-14T08:24:17;96369.03;;;13.69;100.00
70954;BME280;58618;47.490;8.736;2023-05-14T08:27:05;96358.56;;;14.36;100.00
70954;BME280;58618;47.490;8.736;2023-05-14T08:29:52;96370.28;;;13.80;100.00
70954;BME280;58618;47.490;8.736;2023-05-14T08:32:40;96370.66;;;13.65;100.00
70954;BME280;58618;47.490;8.736;2023-05-14T08:35:27;96367.59;;;13.85;100.00
70954;BME280;58618;47.490;8.736;2023-05-14T08:38:16;96366.72;;;14.43;100.00
70954;BME280;58618;47.490;8.736;2023-05-14T08:41:05;96370.41;;;13.98;100.00
70954;BME280;58618;47.490;8.736;2023-05-14T08:43:57;96370.78;;;13.60;100.00
70954;BME280;58618;47.490;8.736;2023-05-14T08:46:48;96364.53;;;13.61;100.00
70954;BME280;58618;47.490;8.736;2023-05-14T08:49:39;96363.53;;;13.93;100.00
70954;BME280;58618;47.490;8.736;2023-05-14T08:52:27;96369.97;;;13.95;100.00
70954;BME280;58618;47.490;8.736;2023-05-14T08:55:17;96360.16;;;13.70;100.00
70954;BME280;58618;47.490;8.736;2023-05-14T08:58:05;96368.84;;;13.66;100.00
70954;BME280;58618;47.490;8.736;2023-05-14T09:00:52;96362.13;;;13.65;100.00
70954;BME280;58618;47.490;8.736;2023-05-14T09:03:40;96366.81;;;13.40;100.00
70954;BME280;58618;47.490;8.736;2023-05-14T09:06:28;96368.16;;;13.38;100.00
70954;BME280;58618;47.490;8.736;2023-05-14T09:09:18;96362.47;;;13.14;100.00
70954;BME280;58618;47.490;8.736;2023-05-14T09:12:09;96357.16;;;12.42;100.00
70954;BME280;58618;47.490;8.736;2023-05-14T09:14:56;96350.44;;;12.41;100.00
70954;BME280;58618;47.490;8.736;2023-05-14T09:17:45;96356.56;;;12.45;100.00
70954;BME280;58618;47.490;8.736;2023-05-14T09:20:33;96362.69;;;12.35;100.00
70954;BME280;58618;47.490;8.736;2023-05-14T09:23:20;96357.16;;;12.42;100.00
70954;BME280;58618;47.490;8.736;2023-05-14T09:26:08;96365.97;;;12.68;100.00
70954;BME280;58618;47.490;8.736;2023-05-14T09:28:58;96353.28;;;12.94;100.00
70954;BME280;58618;47.490;8.736;2023-05-14T09:31:49;96358.25;;;13.18;100.00
70954;BME280;58618;47.490;8.736;2023-05-14T09:34:37;96354.47;;;13.37;100.00
70954;BME280;58618;47.490;8.736;2023-05-14T09:37:27;96368.44;;;13.72;100.00
70954;BME280;58618;47.490;8.736;2023-05-14T09:40:16;96355.63;;;14.29;100.00
70954;BME280;58618;47.490;8.736;2023-05-14T09:43:04;96341.84;;;14.59;100.00
70954;BME280;58618;47.490;8.736;2023-05-14T09:45:53;96341.19;;;14.36;100.00
70954;BME280;58618;47.490;8.736;2023-05-14T09:48:40;96340.31;;;14.50;100.00
70954;BME280;58618;47.490;8.736;2023-05-14T09:51:28;96344.84;;;15.18;100.00
70954;BME280;58618;47.490;8.736;2023-05-14T09:54:17;96339.69;;;15.52;100.00
70954;BME280;58618;47.490;8.736;2023-05-14T09:57:05;96334.50;;;15.52;100.00
70954;BME280;58618;47.490;8.736;2023-05-14T09:59:53;96328.94;;;15.02;100.00
70954;BME280;58618;47.490;8.736;2023-05-14T10:02:42;96333.69;;;14.92;100.00
70954;BME280;58618;47.490;8.736;2023-05-14T10:05:34;96333.53;;;15.83;100.00
70954;BME280;58618;47.490;8.736;2023-05-14T10:08:26;96319.03;;;15.47;100.00
70954;BME280;58618;47.490;8.736;2023-05-14T10:11:18;96333.66;;;16.41;100.00
70954;BME280;58618;47.490;8.736;2023-05-14T10:14:12;96324.06;;;16.33;100.00
70954;BME280;58618;47.490;8.736;2023-05-14T10:17:05;96319.94;;;15.60;100.00
70954;BME280;58618;47.490;8.736;2023-05-14T10:19:56;96326.91;;;16.40;100.00
70954;BME280;58618;47.490;8.736;2023-05-14T10:22:45;96315.00;;;16.69;100.00
70954;BME280;58618;47.490;8.736;2023-05-14T10:25:33;96315.00;;;16.69;100.00
70954;BME280;58618;47.490;8.736;2023-05-14T10:28:21;96311.81;;;15.79;100.00
70954;BME280;58618;47.490;8.736;2023-05-14T10:31:08;96308.91;;;16.27;100.00
70954;BME280;58618;47.490;8.736;2023-05-14T10:33:56;96318.38;;;16.31;94.96
70954;BME280;58618;47.490;8.736;2023-05-14T10:36:45;96313.50;;;15.83;100.00
70954;BME280;58618;47.490;8.736;2023-05-14T10:39:40;96302.69;;;15.21;100.00
70954;BME280;58618;47.490;8.736;2023-05-14T10:42:31;96312.16;;;15.34;100.00
70954;BME280;58618;47.490;8.736;2023-05-14T10:45:21;96312.63;;;15.10;100.00
70954;BME280;58618;47.490;8.736;2023-05-14T10:48:10;96316.88;;;14.89;100.00
70954;BME280;58618;47.490;8.736;2023-05-14T10:50:57;96310.75;;;14.68;100.00
70954;BME280;58618;47.490;8.736;2023-05-14T10:53:46;96311.31;;;13.86;100.00
70954;BME280;58618;47.490;8.736;2023-05-14T10:56:35;96303.91;;;14.02;100.00
70954;BME280;58618;47.490;8.736;2023-05-14T10:59:26;96320.91;;;13.85;100.00
70954;BME280;58618;47.490;8.736;2023-05-14T11:02:21;96315.53;;;13.51;100.00
70954;BME280;58618;47.490;8.736;2023-05-14T11:05:10;96302.16;;;13.35;100.00
70954;BME280;58618;47.490;8.736;2023-05-14T11:08:00;96300.38;;;12.86;100.00
70954;BME280;58618;47.490;8.736;2023-05-14T11:10:53;96305.53;;;13.00;100.00
70954;BME280;58618;47.490;8.736;2023-05-14T11:13:41;96304.75;;;13.13;100.00
70954;BME280;58618;47.490;8.736;2023-05-14T11:16:30;96303.81;;;12.95;100.00
70954;BME280;58618;47.490;8.736;2023-05-14T11:19:20;96295.44;;;13.34;100.00
70954;BME280;58618;47.490;8.736;2023-05-14T11:22:07;96296.44;;;13.69;100.00
70954;BME280;58618;47.490;8.736;2023-05-14T11:24:55;96286.91;;;13.87;100.00
70954;BME280;58618;47.490;8.736;2023-05-14T11:27:45;96285.44;;;13.94;100.00
70954;BME280;58618;47.490;8.736;2023-05-14T11:30:33;96280.84;;;14.31;100.00
70954;BME280;58618;47.490;8.736;2023-05-14T11:33:21;96273.03;;;14.88;100.00
70954;BME280;58618;47.490;8.736;2023-05-14T11:36:09;96281.88;;;14.87;100.00
70954;BME280;58618;47.490;8.736;2023-05-14T11:38:57;96270.88;;;15.41;100.00
70954;BME280;58618;47.490;8.736;2023-05-14T11:41:44;96277.63;;;15.59;100.00
70954;BME280;58618;47.490;8.736;2023-05-14T11:44:33;96277.13;;;15.66;100.00
70954;BME280;58618;47.490;8.736;2023-05-14T11:47:21;96274.41;;;15.02;100.00
70954;BME280;58618;47.490;8.736;2023-05-14T11:50:09;96277.00;;;14.94;100.00
70954;BME280;58618;47.490;8.736;2023-05-14T11:52:56;96269.19;;;14.68;100.00
70954;BME280;58618;47.490;8.736;2023-05-14T11:55:44;96273.78;;;14.23;100.00
70954;BME280;58618;47.490;8.736;2023-05-14T11:58:32;96270.34;;;13.96;100.00
70954;BME280;58618;47.490;8.736;2023-05-14T12:01:21;96268.59;;;14.23;100.00
70954;BME280;58618;47.490;8.736;2023-05-14T12:04:08;96261.00;;;13.87;100.00
70954;BME280;58618;47.490;8.736;2023-05-14T12:06:57;96261.22;;;13.68;100.00
70954;BME280;58618;47.490;8.736;2023-05-14T12:09:46;96263.28;;;13.88;100.00
70954;BME280;58618;47.490;8.736;2023-05-14T12:12:35;96257.19;;;13.84;100.00
70954;BME280;58618;47.490;8.736;2023-05-14T12:15:23;96258.31;;;13.70;100.00
70954;BME280;58618;47.490;8.736;2023-05-14T12:18:13;96258.53;;;13.82;100.00
70954;BME280;58618;47.490;8.736;2023-05-14T12:21:01;96267.69;;;13.79;100.00
70954;BME280;58618;47.490;8.736;2023-05-14T12:23:55;96259.91;;;13.79;100.00
70954;BME280;58618;47.490;8.736;2023-05-14T12:26:44;96270.28;;;13.79;100.00
70954;BME280;58618;47.490;8.736;2023-05-14T12:29:35;96259.41;;;13.69;100.00
70954;BME280;58618;47.490;8.736;2023-05-14T12:32:24;96256.88;;;13.33;100.00
70954;BME280;58618;47.490;8.736;2023-05-14T12:35:13;96254.97;;;13.16;100.00
70954;BME280;58618;47.490;8.736;2023-05-14T12:38:00;96250.75;;;13.29;100.00
70954;BME280;58618;47.490;8.736;2023-05-14T12:40:48;96244.03;;;13.50;100.00
70954;BME280;58618;47.490;8.736;2023-05-14T12:43:35;96235.41;;;13.94;100.00
70954;BME280;58618;47.490;8.736;2023-05-14T12:46:25;96229.31;;;14.38;100.00
70954;BME280;58618;47.490;8.736;2023-05-14T12:49:13;96237.75;;;14.69;100.00
70954;BME280;58618;47.490;8.736;2023-05-14T12:52:02;96236.06;;;14.73;100.00
70954;BME280;58618;47.490;8.736;2023-05-14T12:54:49;96229.97;;;14.69;100.00
70954;BME280;58618;47.490;8.736;2023-05-14T12:57:36;96224.91;;;14.73;100.00
70954;BME280;58618;47.490;8.736;2023-05-14T13:00:24;96223.81;;;14.65;100.00
70954;BME280;58618;47.490;8.736;2023-05-14T13:03:14;96220.50;;;14.73;100.00
70954;BME280;58618;47.490;8.736;2023-05-14T13:06:01;96217.44;;;14.89;100.00
70954;BME280;58618;47.490;8.736;2023-05-14T13:08:50;96214.81;;;14.97;100.00
70954;BME280;58618;47.490;8.736;2023-05-14T13:11:37;96206.09;;;15.02;100.00
70954;BME280;58618;47.490;8.736;2023-05-14T13:14:24;96197.78;;;15.43;100.00
70954;BME280;58618;47.490;8.736;2023-05-14T13:17:11;96201.59;;;15.92;100.00
70954;BME280;58618;47.490;8.736;2023-05-14T13:19:59;96206.16;;;16.54;100.00
70954;BME280;58618;47.490;8.736;2023-05-14T13:22:46;96200.47;;;16.81;100.00
70954;BME280;58618;47.490;8.736;2023-05-14T13:25:35;96199.03;;;16.21;100.00
70954;BME280;58618;47.490;8.736;2023-05-14T13:28:22;96188.44;;;15.50;100.00
70954;BME280;58618;47.490;8.736;2023-05-14T13:31:11;96198.34;;;15.66;100.00
70954;BME280;58618;47.490;8.736;2023-05-14T13:33:59;96203.28;;;15.58;100.00
70954;BME280;58618;47.490;8.736;2023-05-14T13:36:47;96197.72;;;15.05;100.00
70954;BME280;58618;47.490;8.736;2023-05-14T13:39:35;96197.72;;;14.88;100.00
70954;BME280;58618;47.490;8.736;2023-05-14T13:42:24;96203.03;;;15.26;100.00
70954;BME280;58618;47.490;8.736;2023-05-14T13:45:12;96191.47;;;15.61;100.00
70954;BME280;58618;47.490;8.736;2023-05-14T13:47:59;96190.31;;;15.88;100.00
70954;BME280;58618;47.490;8.736;2023-05-14T13:50:47;96182.91;;;15.69;100.00
70954;BME280;58618;47.490;8.736;2023-05-14T13:53:35;96180.53;;;15.85;100.00
70954;BME280;58618;47.490;8.736;2023-05-14T13:56:22;96177.94;;;16.35;100.00
70954;BME280;58618;47.490;8.736;2023-05-14T13:59:11;96184.66;;;16.15;100.00
70954;BME280;58618;47.490;8.736;2023-05-14T14:01:58;96183.50;;;15.75;100.00
70954;BME280;58618;47.490;8.736;2023-05-14T14:04:46;96177.47;;;15.83;100.00
70954;BME280;58618;47.490;8.736;2023-05-14T14:07:34;96176.94;;;16.27;100.00
70954;BME280;58618;47.490;8.736;2023-05-14T14:10:22;96177.69;;;16.07;100.00
70954;BME280;58618;47.490;8.736;2023-05-14T14:13:09;96178.34;;;15.57;100.00
70954;BME280;58618;47.490;8.736;2023-05-14T14:15:58;96173.75;;;15.63;100.00
70954;BME280;58618;47.490;8.736;2023-05-14T14:18:48;96170.44;;;16.13;100.00
70954;BME280;58618;47.490;8.736;2023-05-14T14:21:36;96168.34;;;16.06;100.00
70954;BME280;58618;47.490;8.736;2023-05-14T14:24:24;96167.44;;;15.73;100.00
70954;BME280;58618;47.490;8.736;2023-05-14T14:27:12;96177.94;;;15.38;100.00
70954;BME280;58618;47.490;8.736;2023-05-14T14:29:59;96176.50;;;14.68;100.00
70954;BME280;58618;47.490;8.736;2023-05-14T14:32:48;96174.66;;;14.43;100.00
70954;BME280;58618;47.490;8.736;2023-05-14T14:35:36;96169.53;;;13.95;100.00
70954;BME280;58618;47.490;8.736;2023-05-14T14:38:24;96166.88;;;13.86;100.00
70954;BME280;58618;47.490;8.736;2023-05-14T14:41:11;96165.50;;;13.80;100.00